sensor_id;sensor_type;location;lat;lon;timestamp;pressure;altitude;pressure_sealevel;temperature;humidity
12763;BME280;6445;52.490;13.378;2023-04-23T00:00:18;51965.97;;;-146.10;52.63
12763;BME280;6445;52.490;13.378;2023-04-23T00:02:44;51941.94;;;-146.10;53.08
12763;BME280;6445;52.490;13.378;2023-04-23T00:05:14;51971.97;;;-146.10;52.68
12763;BME280;6445;52.490;13.378;2023-04-23T00:07:41;51963.97;;;-146.10;52.76
12763;BME280;6445;52.490;13.378;2023-04-23T00:10:07;51995.97;;;-146.10;53.20
12763;BME280;6445;52.490;13.378;2023-04-23T00:12:33;51987.97;;;-146.10;53.24
12763;BME280;6445;52.490;13.378;2023-04-23T00:14:59;51969.97;;;-146.10;53.60
12763;BME280;6445;52.490;13.378;2023-04-23T00:17:24;51971.97;;;-146.10;54.31
12763;BME280;6445;52.490;13.378;2023-04-23T00:19:49;51995.97;;;-146.10;54.40
12763;BME280;6445;52.490;13.378;2023-04-23T00:22:15;51953.97;;;-146.10;54.88
12763;BME280;6445;52.490;13.378;2023-04-23T00:24:41;51951.97;;;-146.10;55.28
12763;BME280;6445;52.490;13.378;2023-04-23T00:27:06;51969.97;;;-146.10;55.36
12763;BME280;6445;52.490;13.378;2023-04-23T00:29:31;51981.97;;;-146.10;55.47
12763;BME280;6445;52.490;13.378;2023-04-23T00:31:57;51961.97;;;-146.10;55.81
12763;BME280;6445;52.490;13.378;2023-04-23T00:34:22;51971.97;;;-146.10;55.92
12763;BME280;6445;52.490;13.378;2023-04-23T00:36:48;51953.97;;;-146.10;55.85
12763;BME280;6445;52.490;13.378;2023-04-23T00:39:13;51953.97;;;-146.10;56.19
12763;BME280;6445;52.490;13.378;2023-04-23T00:41:39;51979.97;;;-146.10;56.11
12763;BME280;6445;52.490;13.378;2023-04-23T00:44:05;51983.97;;;-146.10;56.33
12763;BME280;6445;52.490;13.378;2023-04-23T00:46:31;51953.97;;;-146.10;56.89
12763;BME280;6445;52.490;13.378;2023-04-23T00:48:56;51977.97;;;-146.10;57.03
12763;BME280;6445;52.490;13.378;2023-04-23T00:51:22;51961.97;;;-146.10;57.25
12763;BME280;6445;52.490;13.378;2023-04-23T00:53:48;51969.97;;;-146.10;57.20
12763;BME280;6445;52.490;13.378;2023-04-23T00:56:14;51955.97;;;-146.10;57.61
12763;BME280;6445;52.490;13.378;2023-04-23T00:58:40;51977.97;;;-146.10;58.10
12763;BME280;6445;52.490;13.378;2023-04-23T01:01:05;51985.97;;;-146.10;57.68
12763;BME280;6445;52.490;13.378;2023-04-23T01:03:31;51973.97;;;-146.10;58.06
12763;BME280;6445;52.490;13.378;2023-04-23T01:05:58;51995.97;;;-146.10;58.33
12763;BME280;6445;52.490;13.378;2023-04-23T01:08:27;51975.97;;;-146.10;58.87
12763;BME280;6445;52.490;13.378;2023-04-23T01:10:55;51975.97;;;-146.10;58.64
12763;BME280;6445;52.490;13.378;2023-04-23T01:13:20;51985.97;;;-146.10;58.60
12763;BME280;6445;52.490;13.378;2023-04-23T01:15:53;51995.97;;;-146.10;58.67
12763;BME280;6445;52.490;13.378;2023-04-23T01:18:18;52001.97;;;-146.10;58.77
12763;BME280;6445;52.490;13.378;2023-04-23T01:20:44;52001.97;;;-146.10;58.92
12763;BME280;6445;52.490;13.378;2023-04-23T01:23:09;51969.97;;;-146.10;58.98
12763;BME280;6445;52.490;13.378;2023-04-23T01:25:35;51991.97;;;-146.10;59.20
12763;BME280;6445;52.490;13.378;2023-04-23T01:28:01;52001.97;;;-146.10;59.63
12763;BME280;6445;52.490;13.378;2023-04-23T01:30:26;51991.97;;;-146.10;59.02
12763;BME280;6445;52.490;13.378;2023-04-23T01:32:53;51981.97;;;-146.10;59.10
12763;BME280;6445;52.490;13.378;2023-04-23T01:35:20;51975.97;;;-146.10;59.65
12763;BME280;6445;52.490;13.378;2023-04-23T01:37:45;51997.97;;;-146.10;59.65
12763;BME280;6445;52.490;13.378;2023-04-23T01:40:11;51995.97;;;-146.10;59.48
12763;BME280;6445;52.490;13.378;2023-04-23T01:42:37;51999.97;;;-146.10;59.88
12763;BME280;6445;52.490;13.378;2023-04-23T01:45:03;51997.97;;;-146.10;59.97
12763;BME280;6445;52.490;13.378;2023-04-23T01:47:28;52007.97;;;-146.10;59.92
12763;BME280;6445;52.490;13.378;2023-04-23T01:49:54;52021.97;;;-146.10;60.54
12763;BME280;6445;52.490;13.378;2023-04-23T01:52:19;51993.97;;;-146.10;60.92
12763;BME280;6445;52.490;13.378;2023-04-23T01:54:45;52007.97;;;-146.10;62.38
12763;BME280;6445;52.490;13.378;2023-04-23T01:57:12;52013.97;;;-146.10;62.27
12763;BME280;6445;52.490;13.378;2023-04-23T01:59:38;52041.97;;;-146.10;63.31
12763;BME280;6445;52.490;13.378;2023-04-23T02:02:03;52039.97;;;-146.10;64.17
12763;BME280;6445;52.490;13.378;2023-04-23T02:04:28;52102.00;;;-146.10;66.94
12763;BME280;6445;52.490;13.378;2023-04-23T02:06:54;52124.00;;;-146.10;66.64
12763;BME280;6445;52.490;13.378;2023-04-23T02:09:19;52186.03;;;-146.10;70.13
12763;BME280;6445;52.490;13.378;2023-04-23T02:11:45;52906.28;;;-146.10;79.69
12763;BME280;6445;52.490;13.378;2023-04-23T02:14:10;56051.03;;;-146.10;88.54
12763;BME280;6445;52.490;13.378;2023-04-23T02:16:35;68671.03;;;-146.10;97.75
12763;BME280;6445;52.490;13.378;2023-04-23T02:19:01;77123.41;;;-146.10;100.00
12763;BME280;6445;52.490;13.378;2023-04-23T02:21:26;98161.47;;;-146.10;100.00
12763;BME280;6445;52.490;13.378;2023-04-23T02:23:55;109834.72;;;-146.10;100.00
12763;BME280;6445;52.490;13.378;2023-04-23T02:26:23;111393.69;;;-146.10;100.00
12763;BME280;6445;52.490;13.378;2023-04-23T02:28:49;111133.81;;;-146.10;100.00
12763;BME280;6445;52.490;13.378;2023-04-23T02:31:15;110614.13;;;-146.10;100.00
12763;BME280;6445;52.490;13.378;2023-04-23T02:33:40;108937.78;;;-146.10;100.00
12763;BME280;6445;52.490;13.378;2023-04-23T02:36:06;108185.06;;;-146.10;100.00
12763;BME280;6445;52.490;13.378;2023-04-23T02:38:32;109455.22;;;-146.10;100.00
12763;BME280;6445;52.490;13.378;2023-04-23T02:40:57;118416.44;;;-146.10;100.00
12763;BME280;6445;52.490;13.378;2023-04-23T02:43:22;117635.53;;;-146.10;100.00
12763;BME280;6445;52.490;13.378;2023-04-23T02:45:47;116316.09;;;-146.10;100.00
12763;BME280;6445;52.490;13.378;2023-04-23T02:48:13;106913.25;;;-146.10;100.00
12763;BME280;6445;52.490;13.378;2023-04-23T02:50:38;109666.28;;;-146.10;100.00
12763;BME280;6445;52.490;13.378;2023-04-23T02:53:03;109924.03;;;-146.10;100.00
12763;BME280;6445;52.490;13.378;2023-04-23T02:55:29;115690.03;;;-146.10;100.00
12763;BME280;6445;52.490;13.378;2023-04-23T02:57:56;116251.03;;;-146.10;100.00
12763;BME280;6445;52.490;13.378;2023-04-23T03:00:22;114204.59;;;-146.10;100.00
12763;BME280;6445;52.490;13.378;2023-04-23T03:02:47;109260.41;;;-146.10;100.00
12763;BME280;6445;52.490;13.378;2023-04-23T03:05:12;108878.94;;;-146.10;100.00
12763;BME280;6445;52.490;13.378;2023-04-23T03:07:38;106237.97;;;-146.10;100.00
12763;BME280;6445;52.490;13.378;2023-04-23T03:10:03;101793.59;;;-146.10;100.00
12763;BME280;6445;52.490;13.378;2023-04-23T03:12:29;99558.06;;;-146.10;100.00
12763;BME280;6445;52.490;13.378;2023-04-23T03:14:54;98920.41;;;-146.10;100.00
12763;BME280;6445;52.490;13.378;2023-04-23T03:17:19;99667.38;;;-146.10;100.00
12763;BME280;6445;52.490;13.378;2023-04-23T03:19:45;95618.47;;;-146.10;100.00
12763;BME280;6445;52.490;13.378;2023-04-23T03:22:10;91500.88;;;-146.10;100.00
12763;BME280;6445;52.490;13.378;2023-04-23T03:24:35;95929.94;;;-146.10;100.00
12763;BME280;6445;52.490;13.378;2023-04-23T03:27:01;104222.91;;;-146.10;100.00
12763;BME280;6445;52.490;13.378;2023-04-23T03:29:26;104905.97;;;-146.10;100.00
12763;BME280;6445;52.490;13.378;2023-04-23T03:31:52;100335.50;;;-146.10;100.00
12763;BME280;6445;52.490;13.378;2023-04-23T03:34:17;94730.72;;;-146.10;100.00
12763;BME280;6445;52.490;13.378;2023-04-23T03:36:43;89975.81;;;-146.10;100.00
12763;BME280;6445;52.490;13.378;2023-04-23T03:39:08;84740.34;;;-146.10;100.00
12763;BME280;6445;52.490;13.378;2023-04-23T03:41:34;80331.66;;;-146.10;100.00
12763;BME280;6445;52.490;13.378;2023-04-23T03:43:59;77169.72;;;-146.10;100.00
12763;BME280;6445;52.490;13.378;2023-04-23T03:46:25;74050.50;;;-146.10;100.00
12763;BME280;6445;52.490;13.378;2023-04-23T03:48:50;69780.13;;;-146.10;100.00
12763;BME280;6445;52.490;13.378;2023-04-23T03:51:15;64769.66;;;-146.10;100.00
12763;BME280;6445;52.490;13.378;2023-04-23T03:53:40;59512.94;;;-146.10;100.00
12763;BME280;6445;52.490;13.378;2023-04-23T03:56:06;54161.09;;;-146.10;100.00
12763;BME280;6445;52.490;13.378;2023-04-23T03:58:32;48756.50;;;-146.10;100.00
12763;BME280;6445;52.490;13.378;2023-04-23T04:00:57;44211.72;;;-146.10;100.00
12763;BME280;6445;52.490;13.378;2023-04-23T04:03:22;32248.63;;;-146.10;100.00
12763;BME280;6445;52.490;13.378;2023-04-23T04:05:48;35305.19;;;-146.10;100.00
12763;BME280;6445;52.490;13.378;2023-04-23T04:08:13;34884.91;;;-146.10;100.00
12763;BME280;6445;52.490;13.378;2023-04-23T04:10:38;33751.72;;;-146.10;100.00
12763;BME280;6445;52.490;13.378;2023-04-23T04:13:05;29059.16;;;-146.10;100.00
12763;BME280;6445;52.490;13.378;2023-04-23T04:15:30;23057.41;;;-146.10;100.00
12763;BME280;6445;52.490;13.378;2023-04-23T04:17:57;14325.69;;;-146.10;100.00
12763;BME280;6445;52.490;13.378;2023-04-23T04:20:25;12433.94;;;-146.10;100.00
12763;BME280;6445;52.490;13.378;2023-04-23T04:22:52;9001.47;;;-146.10;100.00
12763;BME280;6445;52.490;13.378;2023-04-23T04:25:18;11519.13;;;-146.10;100.00
12763;BME280;6445;52.490;13.378;2023-04-23T04:27:43;10171.03;;;-146.10;100.00
12763;BME280;6445;52.490;13.378;2023-04-23T04:30:10;14801.25;;;-146.10;100.00
12763;BME280;6445;52.490;13.378;2023-04-23T04:32:35;12051.75;;;-146.10;100.00
12763;BME280;6445;52.490;13.378;2023-04-23T04:35:03;15286.75;;;-146.10;100.00
12763;BME280;6445;52.490;13.378;2023-04-23T04:37:29;20028.25;;;-146.10;100.00
12763;BME280;6445;52.490;13.378;2023-04-23T04:39:54;21064.16;;;-146.10;100.00
12763;BME280;6445;52.490;13.378;2023-04-23T04:42:19;24700.03;;;-146.10;100.00
12763;BME280;6445;52.490;13.378;2023-04-23T04:44:45;32276.47;;;-146.10;100.00
12763;BME280;6445;52.490;13.378;2023-04-23T04:47:10;34440.75;;;-146.10;100.00
12763;BME280;6445;52.490;13.378;2023-04-23T04:49:37;41241.97;;;-146.10;100.00
12763;BME280;6445;52.490;13.378;2023-04-23T04:52:02;46316.66;;;-146.10;100.00
12763;BME280;6445;52.490;13.378;2023-04-23T04:54:27;48474.66;;;-146.10;100.00
12763;BME280;6445;52.490;13.378;2023-04-23T04:56:53;52112.00;;;-146.10;100.00
12763;BME280;6445;52.490;13.378;2023-04-23T04:59:18;57547.22;;;-146.10;100.00
12763;BME280;6445;52.490;13.378;2023-04-23T05:01:43;58118.19;;;-146.10;100.00
12763;BME280;6445;52.490;13.378;2023-04-23T05:04:09;60908.16;;;-146.10;100.00
12763;BME280;6445;52.490;13.378;2023-04-23T05:06:34;62201.59;;;-146.10;100.00
12763;BME280;6445;52.490;13.378;2023-04-23T05:08:59;65743.13;;;-146.10;100.00
12763;BME280;6445;52.490;13.378;2023-04-23T05:11:24;66483.94;;;-146.10;100.00
12763;BME280;6445;52.490;13.378;2023-04-23T05:13:50;68793.59;;;-146.10;100.00
12763;BME280;6445;52.490;13.378;2023-04-23T05:16:15;73539.59;;;-146.10;100.00
12763;BME280;6445;52.490;13.378;2023-04-23T05:18:41;80700.38;;;-146.10;100.00
12763;BME280;6445;52.490;13.378;2023-04-23T05:21:06;85260.78;;;-146.10;100.00
12763;BME280;6445;52.490;13.378;2023-04-23T05:23:33;87439.97;;;-146.10;100.00
12763;BME280;6445;52.490;13.378;2023-04-23T05:25:59;92100.97;;;-146.10;100.00
12763;BME280;6445;52.490;13.378;2023-04-23T05:28:24;95066.38;;;-146.10;100.00
12763;BME280;6445;52.490;13.378;2023-04-23T05:30:50;95485.00;;;-146.10;100.00
12763;BME280;6445;52.490;13.378;2023-04-23T05:33:16;96043.19;;;-146.10;100.00
12763;BME280;6445;52.490;13.378;2023-04-23T05:35:41;94338.47;;;-146.10;100.00
12763;BME280;6445;52.490;13.378;2023-04-23T05:38:07;94985.50;;;-146.10;100.00
12763;BME280;6445;52.490;13.378;2023-04-23T05:40:33;93576.34;;;-146.10;100.00
12763;BME280;6445;52.490;13.378;2023-04-23T05:42:58;92373.78;;;-146.10;100.00
12763;BME280;6445;52.490;13.378;2023-04-23T05:45:24;91327.13;;;-146.10;100.00
12763;BME280;6445;52.490;13.378;2023-04-23T05:47:49;89630.47;;;-146.10;100.00
12763;BME280;6445;52.490;13.378;2023-04-23T05:50:15;88986.31;;;-146.10;100.00
12763;BME280;6445;52.490;13.378;2023-04-23T05:52:41;89228.63;;;-146.10;100.00
12763;BME280;6445;52.490;13.378;2023-04-23T05:55:06;89937.44;;;-146.10;100.00
12763;BME280;6445;52.490;13.378;2023-04-23T05:57:33;92010.06;;;-146.10;100.00
12763;BME280;6445;52.490;13.378;2023-04-23T05:59:59;92365.69;;;-146.10;100.00
12763;BME280;6445;52.490;13.378;2023-04-23T06:02:24;93974.56;;;-146.10;100.00
12763;BME280;6445;52.490;13.378;2023-04-23T06:04:49;95456.69;;;-146.10;100.00
12763;BME280;6445;52.490;13.378;2023-04-23T06:07:14;95927.91;;;-146.10;100.00
12763;BME280;6445;52.490;13.378;2023-04-23T06:09:40;97649.50;;;-146.10;100.00
12763;BME280;6445;52.490;13.378;2023-04-23T06:12:05;98390.13;;;-146.10;100.00
12763;BME280;6445;52.490;13.378;2023-04-23T06:14:30;98813.13;;;-146.10;100.00
12763;BME280;6445;52.490;13.378;2023-04-23T06:16:56;97596.88;;;-146.10;100.00
12763;BME280;6445;52.490;13.378;2023-04-23T06:19:21;96939.34;;;-146.10;100.00
12763;BME280;6445;52.490;13.378;2023-04-23T06:21:49;95545.66;;;-146.10;100.00
12763;BME280;6445;52.490;13.378;2023-04-23T06:24:15;95865.22;;;-146.10;100.00
12763;BME280;6445;52.490;13.378;2023-04-23T06:26:40;95986.56;;;-146.10;100.00
12763;BME280;6445;52.490;13.378;2023-04-23T06:29:05;94702.41;;;-146.10;100.00
12763;BME280;6445;52.490;13.378;2023-04-23T06:31:31;96494.28;;;-146.10;100.00
12763;BME280;6445;52.490;13.378;2023-04-23T06:33:56;96660.16;;;-146.10;100.00
12763;BME280;6445;52.490;13.378;2023-04-23T06:36:21;95905.66;;;-146.10;100.00
12763;BME280;6445;52.490;13.378;2023-04-23T06:38:46;95400.06;;;-146.10;100.00
12763;BME280;6445;52.490;13.378;2023-04-23T06:41:12;94033.19;;;-146.10;100.00
12763;BME280;6445;52.490;13.378;2023-04-23T06:43:37;95523.41;;;-146.10;100.00
12763;BME280;6445;52.490;13.378;2023-04-23T06:46:02;96433.59;;;-146.10;100.00
12763;BME280;6445;52.490;13.378;2023-04-23T06:48:28;96196.94;;;-146.10;100.00
12763;BME280;6445;52.490;13.378;2023-04-23T06:50:53;94884.41;;;-146.10;100.00
12763;BME280;6445;52.490;13.378;2023-04-23T06:53:18;95519.38;;;-146.10;100.00
12763;BME280;6445;52.490;13.378;2023-04-23T06:55:43;94277.81;;;-146.10;100.00
12763;BME280;6445;52.490;13.378;2023-04-23T06:58:09;93295.38;;;-146.10;100.00
12763;BME280;6445;52.490;13.378;2023-04-23T07:00:35;91363.50;;;-146.10;100.00
12763;BME280;6445;52.490;13.378;2023-04-23T07:03:00;89884.91;;;-146.10;100.00
12763;BME280;6445;52.490;13.378;2023-04-23T07:05:26;87308.78;;;-146.10;100.00
12763;BME280;6445;52.490;13.378;2023-04-23T07:07:51;84431.78;;;-146.10;100.00
12763;BME280;6445;52.490;13.378;2023-04-23T07:10:17;81691.84;;;-146.10;100.00
12763;BME280;6445;52.490;13.378;2023-04-23T07:12:42;77395.19;;;-146.10;100.00
12763;BME280;6445;52.490;13.378;2023-04-23T07:15:07;69940.88;;;-146.10;100.00
12763;BME280;6445;52.490;13.378;2023-04-23T07:17:33;61411.47;;;-146.10;100.00
12763;BME280;6445;52.490;13.378;2023-04-23T07:19:58;52926.31;;;-146.10;100.00
12763;BME280;6445;52.490;13.378;2023-04-23T07:22:24;44389.41;;;-146.10;100.00
12763;BME280;6445;52.490;13.378;2023-04-23T07:24:51;37654.50;;;-146.10;100.00
12763;BME280;6445;52.490;13.378;2023-04-23T07:27:16;30893.34;;;-146.10;100.00
12763;BME280;6445;52.490;13.378;2023-04-23T07:29:42;25224.53;;;-146.10;100.00
12763;BME280;6445;52.490;13.378;2023-04-23T07:32:07;21878.03;;;-146.10;100.00
12763;BME280;6445;52.490;13.378;2023-04-23T07:34:32;18490.75;;;-146.10;100.00
12763;BME280;6445;52.490;13.378;2023-04-23T07:36:58;15203.53;;;-146.10;100.00
12763;BME280;6445;52.490;13.378;2023-04-23T07:39:23;12338.88;;;-146.10;100.00
12763;BME280;6445;52.490;13.378;2023-04-23T07:41:49;9755.41;;;-146.10;100.00
12763;BME280;6445;52.490;13.378;2023-04-23T07:44:14;8081.50;;;-146.10;100.00
12763;BME280;6445;52.490;13.378;2023-04-23T07:46:39;7533.59;;;-146.10;100.00
12763;BME280;6445;52.490;13.378;2023-04-23T07:49:04;5467.25;;;-146.10;100.00
12763;BME280;6445;52.490;13.378;2023-04-23T07:51:31;1758.53;;;-146.10;100.00
12763;BME280;6445;52.490;13.378;2023-04-23T07:53:57;97.97;;;-146.10;100.00
12763;BME280;6445;52.490;13.378;2023-04-23T07:56:22;-350.13;;;-146.10;100.00
12763;BME280;6445;52.490;13.378;2023-04-23T07:58:48;-1220.50;;;-146.10;100.00
12763;BME280;6445;52.490;13.378;2023-04-23T08:01:14;-2023.59;;;-146.10;100.00
12763;BME280;6445;52.490;13.378;2023-04-23T08:03:39;-3384.72;;;-146.10;100.00
12763;BME280;6445;52.490;13.378;2023-04-23T08:06:05;-6387.34;;;-146.10;100.00
12763;BME280;6445;52.490;13.378;2023-04-23T08:08:30;-7248.47;;;-146.10;100.00
12763;BME280;6445;52.490;13.378;2023-04-23T08:10:55;-6418.88;;;-146.10;100.00
12763;BME280;6445;52.490;13.378;2023-04-23T08:13:21;-7695.69;;;-146.10;100.00
12763;BME280;6445;52.490;13.378;2023-04-23T08:15:46;-9736.16;;;-146.10;100.00
12763;BME280;6445;52.490;13.378;2023-04-23T08:18:13;-10342.59;;;-146.10;100.00
12763;BME280;6445;52.490;13.378;2023-04-23T08:20:38;-11094.56;;;-146.10;100.00
12763;BME280;6445;52.490;13.378;2023-04-23T08:23:03;-12695.97;;;-146.10;100.00
12763;BME280;6445;52.490;13.378;2023-04-23T08:25:29;-12695.97;;;-146.10;100.00
12763;BME280;6445;52.490;13.378;2023-04-23T08:27:54;-12695.97;;;-146.10;100.00
12763;BME280;6445;52.490;13.378;2023-04-23T08:30:20;-12695.97;;;-146.10;100.00
12763;BME280;6445;52.490;13.378;2023-04-23T08:32:48;-12695.97;;;-146.10;100.00
12763;BME280;6445;52.490;13.378;2023-04-23T08:35:14;-12695.97;;;-146.10;100.00
12763;BME280;6445;52.490;13.378;2023-04-23T08:37:39;-12695.97;;;-146.10;100.00
12763;BME280;6445;52.490;13.378;2023-04-23T08:40:06;-12695.97;;;-146.10;100.00
12763;BME280;6445;52.490;13.378;2023-04-23T08:42:44;-12695.97;;;-146.10;100.00
12763;BME280;6445;52.490;13.378;2023-04-23T08:45:13;-12695.97;;;-146.10;100.00
12763;BME280;6445;52.490;13.378;2023-04-23T08:47:40;-12695.97;;;-146.10;100.00
12763;BME280;6445;52.490;13.378;2023-04-23T08:50:07;-12694.50;;;-146.10;100.00
12763;BME280;6445;52.490;13.378;2023-04-23T08:52:38;-12695.97;;;-146.10;100.00
12763;BME280;6445;52.490;13.378;2023-04-23T08:55:06;-12695.97;;;-146.10;100.00
12763;BME280;6445;52.490;13.378;2023-04-23T08:57:35;-12694.50;;;-146.10;100.00
12763;BME280;6445;52.490;13.378;2023-04-23T09:00:03;-12694.50;;;-146.10;100.00
12763;BME280;6445;52.490;13.378;2023-04-23T09:02:31;-11649.59;;;-146.10;100.00
12763;BME280;6445;52.490;13.378;2023-04-23T09:04:57;-11092.59;;;-146.10;100.00
12763;BME280;6445;52.490;13.378;2023-04-23T09:07:22;-10212.66;;;-146.10;100.00
12763;BME280;6445;52.490;13.378;2023-04-23T09:09:48;-10525.66;;;-146.10;100.00
12763;BME280;6445;52.490;13.378;2023-04-23T09:12:13;-7839.53;;;-146.10;100.00
12763;BME280;6445;52.490;13.378;2023-04-23T09:14:38;-10809.16;;;-146.10;100.00
12763;BME280;6445;52.490;13.378;2023-04-23T09:17:04;-9623.94;;;-146.10;100.00
12763;BME280;6445;52.490;13.378;2023-04-23T09:19:30;-10651.66;;;-146.10;100.00
12763;BME280;6445;52.490;13.378;2023-04-23T09:21:57;-12269.47;;;-146.10;100.00
12763;BME280;6445;52.490;13.378;2023-04-23T09:24:23;-12273.41;;;-146.10;100.00
12763;BME280;6445;52.490;13.378;2023-04-23T09:26:50;-11181.16;;;-146.10;100.00
12763;BME280;6445;52.490;13.378;2023-04-23T09:29:20;-10740.25;;;-146.10;100.00
12763;BME280;6445;52.490;13.378;2023-04-23T09:31:50;-11395.72;;;-146.10;100.00
12763;BME280;6445;52.490;13.378;2023-04-23T09:34:19;-12695.97;;;-146.10;100.00
12763;BME280;6445;52.490;13.378;2023-04-23T09:36:47;-12695.97;;;-146.10;100.00
12763;BME280;6445;52.490;13.378;2023-04-23T09:39:16;-12695.97;;;-146.10;100.00
12763;BME280;6445;52.490;13.378;2023-04-23T09:41:42;-12695.97;;;-146.10;100.00
12763;BME280;6445;52.490;13.378;2023-04-23T09:44:09;-12695.97;;;-146.10;100.00
12763;BME280;6445;52.490;13.378;2023-04-23T09:46:38;-12695.97;;;-146.10;100.00
12763;BME280;6445;52.490;13.378;2023-04-23T09:49:05;-12695.97;;;-146.10;100.00
12763;BME280;6445;52.490;13.378;2023-04-23T09:51:38;-12695.97;;;-146.10;100.00
12763;BME280;6445;52.490;13.378;2023-04-23T09:54:12;-12695.97;;;-146.10;100.00
12763;BME280;6445;52.490;13.378;2023-04-23T09:56:39;-12695.97;;;-146.10;100.00
12763;BME280;6445;52.490;13.378;2023-04-23T09:59:24;-12695.97;;;-146.10;100.00
12763;BME280;6445;52.490;13.378;2023-04-23T10:01:51;-12695.97;;;-146.10;100.00
12763;BME280;6445;52.490;13.378;2023-04-23T10:04:21;-12695.97;;;-146.10;100.00
12763;BME280;6445;52.490;13.378;2023-04-23T10:06:52;-12695.97;;;-146.10;100.00
12763;BME280;6445;52.490;13.378;2023-04-23T10:09:18;-12695.97;;;-146.10;100.00
12763;BME280;6445;52.490;13.378;2023-04-23T10:11:55;-12695.97;;;-146.10;100.00
12763;BME280;6445;52.490;13.378;2023-04-23T10:14:22;-12442.63;;;-146.10;100.00
12763;BME280;6445;52.490;13.378;2023-04-23T10:16:50;-12695.97;;;-146.10;100.00
12763;BME280;6445;52.490;13.378;2023-04-23T10:19:21;-12695.97;;;-146.10;100.00
12763;BME280;6445;52.490;13.378;2023-04-23T10:21:49;-12695.97;;;-146.10;100.00
12763;BME280;6445;52.490;13.378;2023-04-23T10:24:18;-12695.97;;;-146.10;100.00
12763;BME280;6445;52.490;13.378;2023-04-23T10:26:46;-12695.97;;;-146.10;100.00
12763;BME280;6445;52.490;13.378;2023-04-23T10:29:13;-12694.50;;;-146.10;100.00
12763;BME280;6445;52.490;13.378;2023-04-23T10:31:41;-12694.50;;;-146.10;100.00
12763;BME280;6445;52.490;13.378;2023-04-23T10:34:08;-12190.78;;;-146.10;100.00
12763;BME280;6445;52.490;13.378;2023-04-23T10:36:35;-10427.25;;;-146.10;100.00
12763;BME280;6445;52.490;13.378;2023-04-23T10:39:01;-10427.25;;;-146.10;100.00
12763;BME280;6445;52.490;13.378;2023-04-23T10:41:38;-5636.41;;;-146.10;100.00
12763;BME280;6445;52.490;13.378;2023-04-23T10:44:05;423.72;;;-146.10;100.00
12763;BME280;6445;52.490;13.378;2023-04-23T10:46:32;4216.13;;;-146.10;100.00
12763;BME280;6445;52.490;13.378;2023-04-23T10:49:11;11051.88;;;-146.10;100.00
12763;BME280;6445;52.490;13.378;2023-04-23T10:51:41;26794.50;;;-146.10;100.00
12763;BME280;6445;52.490;13.378;2023-04-23T10:54:07;27812.34;;;-146.10;100.00
12763;BME280;6445;52.490;13.378;2023-04-23T10:56:37;37827.94;;;-146.10;100.00
12763;BME280;6445;52.490;13.378;2023-04-23T10:59:06;42832.34;;;-146.10;100.00
12763;BME280;6445;52.490;13.378;2023-04-23T11:01:31;46594.31;;;-146.10;100.00
12763;BME280;6445;52.490;13.378;2023-04-23T11:03:56;51239.84;;;-146.10;100.00
12763;BME280;6445;52.490;13.378;2023-04-23T11:09:39;57074.47;;;-146.10;100.00
12763;BME280;6445;52.490;13.378;2023-04-23T11:12:06;56113.13;;;-146.10;100.00
12763;BME280;6445;52.490;13.378;2023-04-23T11:14:40;56317.38;;;-146.10;100.00
12763;BME280;6445;52.490;13.378;2023-04-23T11:17:05;55882.81;;;-146.10;100.00
12763;BME280;6445;52.490;13.378;2023-04-23T11:19:35;62687.00;;;-146.10;100.00
12763;BME280;6445;52.490;13.378;2023-04-23T11:22:05;63686.06;;;-146.10;100.00
12763;BME280;6445;52.490;13.378;2023-04-23T11:24:36;65815.41;;;-146.10;100.00
12763;BME280;6445;52.490;13.378;2023-04-23T11:27:16;65347.69;;;-146.10;100.00
12763;BME280;6445;52.490;13.378;2023-04-23T11:29:44;60244.56;;;-146.10;100.00
12763;BME280;6445;52.490;13.378;2023-04-23T11:32:14;60016.06;;;-146.10;100.00
12763;BME280;6445;52.490;13.378;2023-04-23T11:34:41;62480.41;;;-146.10;100.00
12763;BME280;6445;52.490;13.378;2023-04-23T11:37:12;69816.28;;;-146.10;100.00
12763;BME280;6445;52.490;13.378;2023-04-23T11:39:41;65947.91;;;-146.10;100.00
12763;BME280;6445;52.490;13.378;2023-04-23T11:42:12;70821.16;;;-146.10;100.00
12763;BME280;6445;52.490;13.378;2023-04-23T11:44:43;71090.50;;;-146.10;100.00
12763;BME280;6445;52.490;13.378;2023-04-23T11:47:10;70535.75;;;-146.10;100.00
12763;BME280;6445;52.490;13.378;2023-04-23T11:49:37;60118.28;;;-146.10;97.06
12763;BME280;6445;52.490;13.378;2023-04-23T11:52:02;53296.50;;;-146.10;80.22
12763;BME280;6445;52.490;13.378;2023-04-23T11:54:28;52536.13;;;-146.10;71.16
12763;BME280;6445;52.490;13.378;2023-04-23T11:56:54;52434.09;;;-146.10;67.37
12763;BME280;6445;52.490;13.378;2023-04-23T11:59:20;52354.06;;;-146.10;65.76
12763;BME280;6445;52.490;13.378;2023-04-23T12:01:50;52370.06;;;-146.10;64.86
12763;BME280;6445;52.490;13.378;2023-04-23T12:04:21;52352.06;;;-146.10;64.63
12763;BME280;6445;52.490;13.378;2023-04-23T12:06:48;52254.03;;;-146.10;60.69
12763;BME280;6445;52.490;13.378;2023-04-23T12:09:14;52274.03;;;-146.10;57.81
12763;BME280;6445;52.490;13.378;2023-04-23T12:11:41;52258.03;;;-146.10;56.18
12763;BME280;6445;52.490;13.378;2023-04-23T12:14:08;52230.03;;;-146.10;56.47
12763;BME280;6445;52.490;13.378;2023-04-23T12:16:41;52262.03;;;-146.10;58.10
12763;BME280;6445;52.490;13.378;2023-04-23T12:19:18;52220.03;;;-146.10;58.57
12763;BME280;6445;52.490;13.378;2023-04-23T12:21:54;52240.03;;;-146.10;59.22
12763;BME280;6445;52.490;13.378;2023-04-23T12:24:27;52204.03;;;-146.10;58.67
12763;BME280;6445;52.490;13.378;2023-04-23T12:26:56;52248.03;;;-146.10;54.49
12763;BME280;6445;52.490;13.378;2023-04-23T12:29:23;52232.03;;;-146.10;53.18